Snow/Ice From: 16-12-2017 16:00 Until: 17-12-2017 16:00 warning for: Snow/Ice Level: Yellow info button

Although rather usual in this region, locally or potentially dangerous phenomena are expected. (such as local winds, summer thunderstorms, rising streams or high waves) Be aware and pay attention to the latest weather updates, especially if you carry out activities exposed to weather or close to a stream or shoreline. 


Meteo18 Weather Cam more information Meteo18 Weather Cam


Thunder radar more information blitzortung!


warning for Snow/Ice more information rain snow radar


Visit our other weather sites:

Template documentation
and downloads

And another site



Weather Underground History page Text

Daily Summary for July 29, 2017 Units:  Both    English   Metric
« Previous Day
Next Day »
Daily Weekly Monthly Yearly Custom
  High: Low: Average:
Temperature: 86.4 °F /  30.2 °C 56.5 °F /  13.6 °C 70.3 °F /  21.3 °C
Dew Point: 63 °F /  17.2 °C 54.1 °F /  12.3 °C 57.7 °F /  14.3 °C
Humidity: 93 % 40 % 68 %
Wind Speed: 14 mph /  22.5 km/h - 3.2 mph /  5.1 km/h
Wind Gust: 20 mph /  32.2 km/h - -
Wind:- - SW
Pressure: 30.1 in /  1018.5 hPa 29.9 in /  1012.4 hPa -
Precipitation: 0 in /  0.0 mm    
Historical Graphs
 
 
Tabular Data for July 29, 2017
Time Temperature Dew Point Pressure Wind Wind Speed Wind Gust Humidity Rainfall Rate (Hourly)
00:02 62.1 °F /  16.7 °C 56.1 °F /  13.4 °C 30.1 in /  1017.8 hPa SSW 1 mph /  1.6 km/h 2 mph /  3.2 km/h 81 % 0 in /  0.0 mm
00:12 62.2 °F /  16.8 °C 55.9 °F /  13.3 °C 30.1 in /  1017.8 hPa SSW 2 mph /  3.2 km/h 2 mph /  3.2 km/h 80 % 0 in /  0.0 mm
00:17 62.4 °F /  16.9 °C 56.1 °F /  13.4 °C 30.1 in /  1017.8 hPa SW 3 mph /  4.8 km/h 3 mph /  4.8 km/h 80 % 0 in /  0.0 mm
00:22 63 °F /  17.2 °C 56.3 °F /  13.5 °C 30.1 in /  1017.8 hPa SW 3 mph /  4.8 km/h 3 mph /  4.8 km/h 79 % 0 in /  0.0 mm
00:32 63.7 °F /  17.6 °C 56.3 °F /  13.5 °C 30.1 in /  1017.8 hPa SW 3 mph /  4.8 km/h 4 mph /  6.4 km/h 77 % 0 in /  0.0 mm
00:42 63.7 °F /  17.6 °C 56.3 °F /  13.5 °C 30.1 in /  1017.8 hPa SSW 1 mph /  1.6 km/h 5 mph /  8.0 km/h 77 % 0 in /  0.0 mm
00:47 63.7 °F /  17.6 °C 56.3 °F /  13.5 °C 30.1 in /  1017.8 hPa SW 2 mph /  3.2 km/h 5 mph /  8.0 km/h 77 % 0 in /  0.0 mm
00:52 63.7 °F /  17.6 °C 56.3 °F /  13.5 °C 30.1 in /  1017.8 hPa Calm   5 mph /  8.0 km/h 77 % 0 in /  0.0 mm
01:02 63 °F /  17.2 °C 55.9 °F /  13.3 °C 30.1 in /  1017.8 hPa West 2 mph /  3.2 km/h 4 mph /  6.4 km/h 78 % 0 in /  0.0 mm
01:12 63.1 °F /  17.3 °C 56.1 °F /  13.4 °C 30.1 in /  1017.8 hPa WSW 1 mph /  1.6 km/h 4 mph /  6.4 km/h 78 % 0 in /  0.0 mm
01:22 63.1 °F /  17.3 °C 56.1 °F /  13.4 °C 30.1 in /  1017.8 hPa SW 2 mph /  3.2 km/h 5 mph /  8.0 km/h 78 % 0 in /  0.0 mm
01:32 63.1 °F /  17.3 °C 56.5 °F /  13.6 °C 30.1 in /  1017.8 hPa SW 3 mph /  4.8 km/h 5 mph /  8.0 km/h 79 % 0 in /  0.0 mm
01:42 63 °F /  17.2 °C 56.3 °F /  13.5 °C 30.1 in /  1017.8 hPa Calm   5 mph /  8.0 km/h 79 % 0 in /  0.0 mm
01:47 62.6 °F /  17.0 °C 55.9 °F /  13.3 °C 30.1 in /  1017.8 hPa Calm   5 mph /  8.0 km/h 79 % 0 in /  0.0 mm
01:52 62.1 °F /  16.7 °C 55.8 °F /  13.2 °C 30.1 in /  1017.8 hPa Calm   4 mph /  6.4 km/h 80 % 0 in /  0.0 mm
01:57 61.3 °F /  16.3 °C 55.4 °F /  13.0 °C 30.1 in /  1017.8 hPa Calm   3 mph /  4.8 km/h 81 % 0 in /  0.0 mm
02:02 60.6 °F /  15.9 °C 55 °F /  12.8 °C 30.1 in /  1017.8 hPa Calm   2 mph /  3.2 km/h 82 % 0 in /  0.0 mm
02:12 59.7 °F /  15.4 °C 54.9 °F /  12.7 °C 30.1 in /  1017.8 hPa Calm   1 mph /  1.6 km/h 84 % 0 in /  0.0 mm
02:17 59.5 °F /  15.3 °C 55 °F /  12.8 °C 30.1 in /  1017.8 hPa Calm   1 mph /  1.6 km/h 85 % 0 in /  0.0 mm
02:22 59.4 °F /  15.2 °C 54.9 °F /  12.7 °C 30.1 in /  1017.8 hPa Calm   1 mph /  1.6 km/h 85 % 0 in /  0.0 mm
02:32 59 °F /  15.0 °C 54.9 °F /  12.7 °C 30.1 in /  1017.8 hPa Calm     86 % 0 in /  0.0 mm
02:42 58.8 °F /  14.9 °C 55 °F /  12.8 °C 30.1 in /  1017.8 hPa Calm   1 mph /  1.6 km/h 87 % 0 in /  0.0 mm
02:47 58.8 °F /  14.9 °C 55 °F /  12.8 °C 30.1 in /  1017.5 hPa Calm   1 mph /  1.6 km/h 87 % 0 in /  0.0 mm
02:52 58.6 °F /  14.8 °C 54.9 °F /  12.7 °C 30.1 in /  1017.8 hPa Calm   1 mph /  1.6 km/h 87 % 0 in /  0.0 mm
02:57 58.3 °F /  14.6 °C 54.5 °F /  12.5 °C 30.1 in /  1017.8 hPa Calm   1 mph /  1.6 km/h 87 % 0 in /  0.0 mm
03:02 57.9 °F /  14.4 °C 54.3 °F /  12.4 °C 30.1 in /  1017.8 hPa Calm   1 mph /  1.6 km/h 88 % 0 in /  0.0 mm
03:12 57.9 °F /  14.4 °C 54.7 °F /  12.6 °C 30.1 in /  1017.8 hPa Calm     89 % 0 in /  0.0 mm
03:17 58.3 °F /  14.6 °C 55 °F /  12.8 °C 30.1 in /  1017.8 hPa Calm     89 % 0 in /  0.0 mm
03:22 58.5 °F /  14.7 °C 55.2 °F /  12.9 °C 30.1 in /  1017.8 hPa Calm     89 % 0 in /  0.0 mm
03:32 58.3 °F /  14.6 °C 54.7 °F /  12.6 °C 30.1 in /  1017.8 hPa Calm     88 % 0 in /  0.0 mm
03:37 58.1 °F /  14.5 °C 54.5 °F /  12.5 °C 30.1 in /  1017.8 hPa Calm     88 % 0 in /  0.0 mm
03:42 57.9 °F /  14.4 °C 54.7 °F /  12.6 °C 30.1 in /  1017.5 hPa Calm     89 % 0 in /  0.0 mm
03:47 57.7 °F /  14.3 °C 54.5 °F /  12.5 °C 30.1 in /  1017.5 hPa Calm     89 % 0 in /  0.0 mm
03:52 57.7 °F /  14.3 °C 54.5 °F /  12.5 °C 30.1 in /  1017.5 hPa Calm     89 % 0 in /  0.0 mm
03:57 57.6 °F /  14.2 °C 54.3 °F /  12.4 °C 30.1 in /  1017.5 hPa Calm     89 % 0 in /  0.0 mm
04:02 57.6 °F /  14.2 °C 54.7 °F /  12.6 °C 30.1 in /  1017.8 hPa Calm     90 % 0 in /  0.0 mm
04:12 57.4 °F /  14.1 °C 54.5 °F /  12.5 °C 30.1 in /  1017.5 hPa SSE 1 mph /  1.6 km/h   90 % 0 in /  0.0 mm
04:17 57.4 °F /  14.1 °C 54.5 °F /  12.5 °C 30.1 in /  1017.5 hPa Calm     90 % 0 in /  0.0 mm
04:22 57.4 °F /  14.1 °C 54.5 °F /  12.5 °C 30.1 in /  1017.5 hPa Calm   1 mph /  1.6 km/h 90 % 0 in /  0.0 mm
04:27 57.4 °F /  14.1 °C 54.5 °F /  12.5 °C 30.1 in /  1017.5 hPa SSE 1 mph /  1.6 km/h 2 mph /  3.2 km/h 90 % 0 in /  0.0 mm
04:32 57.4 °F /  14.1 °C 54.5 °F /  12.5 °C 30.1 in /  1017.5 hPa SE 1 mph /  1.6 km/h 2 mph /  3.2 km/h 90 % 0 in /  0.0 mm
04:37 57.4 °F /  14.1 °C 54.5 °F /  12.5 °C 30.1 in /  1017.5 hPa SE 1 mph /  1.6 km/h 2 mph /  3.2 km/h 90 % 0 in /  0.0 mm
04:42 57.2 °F /  14.0 °C 54.7 °F /  12.6 °C 30.1 in /  1017.5 hPa Calm   2 mph /  3.2 km/h 91 % 0 in /  0.0 mm
04:47 57.2 °F /  14.0 °C 54.7 °F /  12.6 °C 30.1 in /  1017.5 hPa Calm   2 mph /  3.2 km/h 91 % 0 in /  0.0 mm
04:52 57.4 °F /  14.1 °C 54.9 °F /  12.7 °C 30.1 in /  1017.8 hPa Calm   2 mph /  3.2 km/h 91 % 0 in /  0.0 mm
04:57 57.4 °F /  14.1 °C 54.9 °F /  12.7 °C 30.1 in /  1017.8 hPa SE 1 mph /  1.6 km/h 2 mph /  3.2 km/h 91 % 0 in /  0.0 mm
05:02 57.4 °F /  14.1 °C 54.9 °F /  12.7 °C 30.1 in /  1017.8 hPa SSE 1 mph /  1.6 km/h 2 mph /  3.2 km/h 91 % 0 in /  0.0 mm
05:12 57.2 °F /  14.0 °C 54.7 °F /  12.6 °C 30.1 in /  1017.8 hPa Calm   2 mph /  3.2 km/h 91 % 0 in /  0.0 mm
05:17 57.2 °F /  14.0 °C 54.7 °F /  12.6 °C 30.1 in /  1017.8 hPa Calm   2 mph /  3.2 km/h 91 % 0 in /  0.0 mm
05:22 57 °F /  13.9 °C 54.5 °F /  12.5 °C 30.1 in /  1017.8 hPa Calm   1 mph /  1.6 km/h 91 % 0 in /  0.0 mm
05:32 57 °F /  13.9 °C 54.5 °F /  12.5 °C 30.1 in /  1017.8 hPa Calm   1 mph /  1.6 km/h 91 % 0 in /  0.0 mm
05:42 57 °F /  13.9 °C 54.5 °F /  12.5 °C 30.1 in /  1017.8 hPa Calm   2 mph /  3.2 km/h 91 % 0 in /  0.0 mm
05:47 56.8 °F /  13.8 °C 54.3 °F /  12.4 °C 30.1 in /  1017.8 hPa Calm   2 mph /  3.2 km/h 91 % 0 in /  0.0 mm
05:52 56.7 °F /  13.7 °C 54.3 °F /  12.4 °C 30.1 in /  1017.8 hPa Calm   2 mph /  3.2 km/h 92 % 0 in /  0.0 mm
05:57 56.7 °F /  13.7 °C 54.3 °F /  12.4 °C 30.1 in /  1017.8 hPa Calm   2 mph /  3.2 km/h 92 % 0 in /  0.0 mm
06:02 56.7 °F /  13.7 °C 54.3 °F /  12.4 °C 30.1 in /  1017.8 hPa Calm   2 mph /  3.2 km/h 92 % 0 in /  0.0 mm
06:12 56.7 °F /  13.7 °C 54.3 °F /  12.4 °C 30.1 in /  1017.8 hPa Calm   1 mph /  1.6 km/h 92 % 0 in /  0.0 mm
06:17 56.5 °F /  13.6 °C 54.1 °F /  12.3 °C 30.1 in /  1017.8 hPa Calm   1 mph /  1.6 km/h 92 % 0 in /  0.0 mm
06:22 56.5 °F /  13.6 °C 54.1 °F /  12.3 °C 30.1 in /  1017.8 hPa Calm     92 % 0 in /  0.0 mm
06:32 56.5 °F /  13.6 °C 54.5 °F /  12.5 °C 30.1 in /  1017.8 hPa SSE 1 mph /  1.6 km/h   93 % 0 in /  0.0 mm
06:37 56.7 °F /  13.7 °C 54.7 °F /  12.6 °C 30.1 in /  1017.8 hPa Calm     93 % 0 in /  0.0 mm
06:42 56.7 °F /  13.7 °C 54.7 °F /  12.6 °C 30.1 in /  1018.2 hPa Calm   3 mph /  4.8 km/h 93 % 0 in /  0.0 mm
06:52 56.8 °F /  13.8 °C 54.9 °F /  12.7 °C 30.1 in /  1018.2 hPa SE 1 mph /  1.6 km/h 2 mph /  3.2 km/h 93 % 0 in /  0.0 mm
07:02 57.4 °F /  14.1 °C 55.4 °F /  13.0 °C 30.1 in /  1018.2 hPa SSE 1 mph /  1.6 km/h 2 mph /  3.2 km/h 93 % 0 in /  0.0 mm
07:07 57.4 °F /  14.1 °C 55.4 °F /  13.0 °C 30.1 in /  1018.2 hPa Calm   2 mph /  3.2 km/h 93 % 0 in /  0.0 mm
07:12 57.6 °F /  14.2 °C 55.6 °F /  13.1 °C 30.1 in /  1018.2 hPa SSE 1 mph /  1.6 km/h 3 mph /  4.8 km/h 93 % 0 in /  0.0 mm
07:17 57.7 °F /  14.3 °C 55.8 °F /  13.2 °C 30.1 in /  1018.2 hPa SSW 1 mph /  1.6 km/h 3 mph /  4.8 km/h 93 % 0 in /  0.0 mm
07:22 57.7 °F /  14.3 °C 55.4 °F /  13.0 °C 30.1 in /  1018.2 hPa SSW 1 mph /  1.6 km/h 2 mph /  3.2 km/h 92 % 0 in /  0.0 mm
07:32 57.9 °F /  14.4 °C 55.6 °F /  13.1 °C 30.1 in /  1018.5 hPa SSW 2 mph /  3.2 km/h 3 mph /  4.8 km/h 92 % 0 in /  0.0 mm
07:42 57.9 °F /  14.4 °C 55.6 °F /  13.1 °C 30.1 in /  1018.5 hPa SSW 2 mph /  3.2 km/h 3 mph /  4.8 km/h 92 % 0 in /  0.0 mm
07:47 58.3 °F /  14.6 °C 55.9 °F /  13.3 °C 30.1 in /  1018.2 hPa South 2 mph /  3.2 km/h 3 mph /  4.8 km/h 92 % 0 in /  0.0 mm
07:52 58.3 °F /  14.6 °C 55.9 °F /  13.3 °C 30.1 in /  1018.2 hPa SE 1 mph /  1.6 km/h 3 mph /  4.8 km/h 92 % 0 in /  0.0 mm
08:02 58.6 °F /  14.8 °C 56.3 °F /  13.5 °C 30.1 in /  1018.2 hPa SSW 1 mph /  1.6 km/h 3 mph /  4.8 km/h 92 % 0 in /  0.0 mm
08:12 58.8 °F /  14.9 °C 56.5 °F /  13.6 °C 30.1 in /  1018.2 hPa Calm   3 mph /  4.8 km/h 92 % 0 in /  0.0 mm
08:17 59 °F /  15.0 °C 56.3 °F /  13.5 °C 30.1 in /  1018.2 hPa SSW 1 mph /  1.6 km/h 3 mph /  4.8 km/h 91 % 0 in /  0.0 mm
08:27 59.4 °F /  15.2 °C 57 °F /  13.9 °C 30.1 in /  1018.2 hPa Calm   2 mph /  3.2 km/h 92 % 0 in /  0.0 mm
08:32 59.5 °F /  15.3 °C 57.2 °F /  14.0 °C 30.1 in /  1018.2 hPa Calm   2 mph /  3.2 km/h 92 % 0 in /  0.0 mm
08:37 59.7 °F /  15.4 °C 57 °F /  13.9 °C 30.1 in /  1018.5 hPa Calm   2 mph /  3.2 km/h 91 % 0 in /  0.0 mm
08:42 60.1 °F /  15.6 °C 57.7 °F /  14.3 °C 30.1 in /  1018.5 hPa Calm   2 mph /  3.2 km/h 92 % 0 in /  0.0 mm
08:52 60.6 °F /  15.9 °C 57.9 °F /  14.4 °C 30.1 in /  1018.5 hPa SSW 2 mph /  3.2 km/h 6 mph /  9.7 km/h 91 % 0 in /  0.0 mm
09:02 61.5 °F /  16.4 °C 58.3 °F /  14.6 °C 30.1 in /  1018.2 hPa SSW 4 mph /  6.4 km/h 6 mph /  9.7 km/h 89 % 0 in /  0.0 mm
09:12 62.2 °F /  16.8 °C 58.6 °F /  14.8 °C 30.1 in /  1018.5 hPa SW 2 mph /  3.2 km/h 7 mph /  11.3 km/h 88 % 0 in /  0.0 mm
09:17 62.8 °F /  17.1 °C 58.8 °F /  14.9 °C 30.1 in /  1018.5 hPa SSW 3 mph /  4.8 km/h 7 mph /  11.3 km/h 87 % 0 in /  0.0 mm
09:22 63.1 °F /  17.3 °C 58.8 °F /  14.9 °C 30.1 in /  1018.5 hPa South 5 mph /  8.0 km/h 6 mph /  9.7 km/h 86 % 0 in /  0.0 mm
09:32 63.5 °F /  17.5 °C 58.8 °F /  14.9 °C 30.1 in /  1018.5 hPa SW 4 mph /  6.4 km/h 7 mph /  11.3 km/h 85 % 0 in /  0.0 mm
09:42 64.8 °F /  18.2 °C 59.9 °F /  15.5 °C 30.1 in /  1018.2 hPa SSW 3 mph /  4.8 km/h 6 mph /  9.7 km/h 84 % 0 in /  0.0 mm
09:52 64.9 °F /  18.3 °C 59.7 °F /  15.4 °C 30.1 in /  1018.2 hPa SSW 2 mph /  3.2 km/h 8 mph /  12.9 km/h 83 % 0 in /  0.0 mm
09:57 64.9 °F /  18.3 °C 59.7 °F /  15.4 °C 30.1 in /  1018.2 hPa SW 7 mph /  11.3 km/h 8 mph /  12.9 km/h 83 % 0 in /  0.0 mm
10:02 64.9 °F /  18.3 °C 59.9 °F /  15.5 °C 30.1 in /  1018.2 hPa SSW 4 mph /  6.4 km/h 8 mph /  12.9 km/h 84 % 0 in /  0.0 mm
10:12 65.1 °F /  18.4 °C 59.9 °F /  15.5 °C 30.1 in /  1018.2 hPa SW 4 mph /  6.4 km/h 8 mph /  12.9 km/h 83 % 0 in /  0.0 mm
10:17 65.1 °F /  18.4 °C 59.5 °F /  15.3 °C 30.1 in /  1018.2 hPa SW 4 mph /  6.4 km/h 8 mph /  12.9 km/h 82 % 0 in /  0.0 mm
10:22 65.1 °F /  18.4 °C 59.5 °F /  15.3 °C 30.1 in /  1018.2 hPa SW 3 mph /  4.8 km/h 9 mph /  14.5 km/h 82 % 0 in /  0.0 mm
10:32 66 °F /  18.9 °C 60.1 °F /  15.6 °C 30.1 in /  1018.2 hPa SW 7 mph /  11.3 km/h 12 mph /  19.3 km/h 81 % 0 in /  0.0 mm
10:37 66.6 °F /  19.2 °C 60.3 °F /  15.7 °C 30.1 in /  1018.2 hPa SSW 2 mph /  3.2 km/h 12 mph /  19.3 km/h 80 % 0 in /  0.0 mm
10:42 67.3 °F /  19.6 °C 59.9 °F /  15.5 °C 30.1 in /  1017.8 hPa SW 9 mph /  14.5 km/h 12 mph /  19.3 km/h 77 % 0 in /  0.0 mm
10:47 67.3 °F /  19.6 °C 60.3 °F /  15.7 °C 30.1 in /  1018.2 hPa SSW 11 mph /  17.7 km/h 12 mph /  19.3 km/h 78 % 0 in /  0.0 mm
10:52 67.6 °F /  19.8 °C 60.3 °F /  15.7 °C 30.1 in /  1017.8 hPa South 3 mph /  4.8 km/h 11 mph /  17.7 km/h 77 % 0 in /  0.0 mm
11:02 68.4 °F /  20.2 °C 59.7 °F /  15.4 °C 30.1 in /  1017.8 hPa WSW 5 mph /  8.0 km/h 11 mph /  17.7 km/h 74 % 0 in /  0.0 mm
11:12 69.1 °F /  20.6 °C 59.7 °F /  15.4 °C 30.1 in /  1017.8 hPa SSW 6 mph /  9.7 km/h 12 mph /  19.3 km/h 72 % 0 in /  0.0 mm
11:17 69.4 °F /  20.8 °C 59.2 °F /  15.1 °C 30.1 in /  1017.8 hPa SW 12 mph /  19.3 km/h 12 mph /  19.3 km/h 70 % 0 in /  0.0 mm
11:22 69.4 °F /  20.8 °C 58.8 °F /  14.9 °C 30.1 in /  1017.8 hPa WSW 4 mph /  6.4 km/h 12 mph /  19.3 km/h 69 % 0 in /  0.0 mm
11:32 70 °F /  21.1 °C 58.1 °F /  14.5 °C 30.1 in /  1017.8 hPa SSW 5 mph /  8.0 km/h 12 mph /  19.3 km/h 66 % 0 in /  0.0 mm
11:42 70.5 °F /  21.4 °C 58.6 °F /  14.8 °C 30.1 in /  1017.8 hPa South 4 mph /  6.4 km/h 10 mph /  16.1 km/h 66 % 0 in /  0.0 mm
11:47 70.7 °F /  21.5 °C 58.3 °F /  14.6 °C 30.1 in /  1017.5 hPa SSW 6 mph /  9.7 km/h 10 mph /  16.1 km/h 65 % 0 in /  0.0 mm
11:52 70.9 °F /  21.6 °C 58.5 °F /  14.7 °C 30.1 in /  1017.5 hPa SSW 6 mph /  9.7 km/h 11 mph /  17.7 km/h 65 % 0 in /  0.0 mm
11:57 71.2 °F /  21.8 °C 58.5 °F /  14.7 °C 30.1 in /  1017.5 hPa SW 6 mph /  9.7 km/h 11 mph /  17.7 km/h 64 % 0 in /  0.0 mm
12:02 72.1 °F /  22.3 °C 59.4 °F /  15.2 °C 30.1 in /  1017.5 hPa SSW 5 mph /  8.0 km/h 11 mph /  17.7 km/h 64 % 0 in /  0.0 mm
12:12 72.1 °F /  22.3 °C 56.5 °F /  13.6 °C 30.1 in /  1017.5 hPa SSW 7 mph /  11.3 km/h 9 mph /  14.5 km/h 58 % 0 in /  0.0 mm
12:17 72.3 °F /  22.4 °C 57.2 °F /  14.0 °C 30.1 in /  1017.5 hPa SW 3 mph /  4.8 km/h 9 mph /  14.5 km/h 59 % 0 in /  0.0 mm
12:22 73 °F /  22.8 °C 57.4 °F /  14.1 °C 30.1 in /  1017.5 hPa SW 3 mph /  4.8 km/h 10 mph /  16.1 km/h 58 % 0 in /  0.0 mm
12:32 72.9 °F /  22.7 °C 56.7 °F /  13.7 °C 30.1 in /  1017.5 hPa SW 2 mph /  3.2 km/h 10 mph /  16.1 km/h 57 % 0 in /  0.0 mm
12:37 73 °F /  22.8 °C 57.4 °F /  14.1 °C 30 in /  1017.2 hPa SW 3 mph /  4.8 km/h 10 mph /  16.1 km/h 58 % 0 in /  0.0 mm
12:42 73 °F /  22.8 °C 56.5 °F /  13.6 °C 30.1 in /  1017.5 hPa WSW 7 mph /  11.3 km/h 9 mph /  14.5 km/h 56 % 0 in /  0.0 mm
12:47 73.2 °F /  22.9 °C 57 °F /  13.9 °C 30 in /  1017.2 hPa SW 3 mph /  4.8 km/h 9 mph /  14.5 km/h 57 % 0 in /  0.0 mm
12:52 73.2 °F /  22.9 °C 56.1 °F /  13.4 °C 30 in /  1017.2 hPa SSW 5 mph /  8.0 km/h 9 mph /  14.5 km/h 55 % 0 in /  0.0 mm
13:02 73.8 °F /  23.2 °C 57 °F /  13.9 °C 30 in /  1017.2 hPa SW 5 mph /  8.0 km/h 12 mph /  19.3 km/h 56 % 0 in /  0.0 mm
13:07 74.5 °F /  23.6 °C 57.7 °F /  14.3 °C 30 in /  1017.2 hPa SSW 4 mph /  6.4 km/h 12 mph /  19.3 km/h 56 % 0 in /  0.0 mm
13:17 74.8 °F /  23.8 °C 57 °F /  13.9 °C 30 in /  1016.8 hPa SW 5 mph /  8.0 km/h 10 mph /  16.1 km/h 54 % 0 in /  0.0 mm
13:22 75.2 °F /  24.0 °C 59 °F /  15.0 °C 30 in /  1016.8 hPa SSW 6 mph /  9.7 km/h 13 mph /  20.9 km/h 57 % 0 in /  0.0 mm
13:27 75.2 °F /  24.0 °C 57.9 °F /  14.4 °C 30 in /  1016.8 hPa SW 3 mph /  4.8 km/h 13 mph /  20.9 km/h 55 % 0 in /  0.0 mm
13:32 75.7 °F /  24.3 °C 59.4 °F /  15.2 °C 30 in /  1016.8 hPa SW 6 mph /  9.7 km/h 13 mph /  20.9 km/h 57 % 0 in /  0.0 mm
13:42 76.5 °F /  24.7 °C 57.6 °F /  14.2 °C 30 in /  1016.5 hPa SSW 9 mph /  14.5 km/h 11 mph /  17.7 km/h 52 % 0 in /  0.0 mm
13:52 77.2 °F /  25.1 °C 58.6 °F /  14.8 °C 30 in /  1016.5 hPa SSW 2 mph /  3.2 km/h 13 mph /  20.9 km/h 53 % 0 in /  0.0 mm
13:57 77.7 °F /  25.4 °C 58.6 °F /  14.8 °C 30 in /  1016.5 hPa SSW 6 mph /  9.7 km/h 13 mph /  20.9 km/h 52 % 0 in /  0.0 mm
14:02 77.9 °F /  25.5 °C 58.8 °F /  14.9 °C 30 in /  1016.1 hPa South 5 mph /  8.0 km/h 9 mph /  14.5 km/h 52 % 0 in /  0.0 mm
14:12 78.4 °F /  25.8 °C 58.8 °F /  14.9 °C 30 in /  1016.1 hPa South 7 mph /  11.3 km/h 14 mph /  22.5 km/h 51 % 0 in /  0.0 mm
14:17 78.3 °F /  25.7 °C 57.6 °F /  14.2 °C 30 in /  1016.1 hPa SW 7 mph /  11.3 km/h 14 mph /  22.5 km/h 49 % 0 in /  0.0 mm
14:27 78.8 °F /  26.0 °C 58.1 °F /  14.5 °C 30 in /  1015.8 hPa South 3 mph /  4.8 km/h 13 mph /  20.9 km/h 49 % 0 in /  0.0 mm
14:32 79.2 °F /  26.2 °C 59 °F /  15.0 °C 30 in /  1015.5 hPa SW 7 mph /  11.3 km/h 13 mph /  20.9 km/h 50 % 0 in /  0.0 mm
14:42 79.5 °F /  26.4 °C 58.6 °F /  14.8 °C 30 in /  1015.5 hPa SSW 6 mph /  9.7 km/h 10 mph /  16.1 km/h 49 % 0 in /  0.0 mm
14:47 79.5 °F /  26.4 °C 59.7 °F /  15.4 °C 30 in /  1015.5 hPa SW 3 mph /  4.8 km/h 10 mph /  16.1 km/h 51 % 0 in /  0.0 mm
14:57 81.7 °F /  27.6 °C 61.2 °F /  16.2 °C 30 in /  1015.1 hPa ESE 1 mph /  1.6 km/h 9 mph /  14.5 km/h 50 % 0 in /  0.0 mm
15:02 81.9 °F /  27.7 °C 60.8 °F /  16.0 °C 30 in /  1015.1 hPa SSE 4 mph /  6.4 km/h 9 mph /  14.5 km/h 49 % 0 in /  0.0 mm
15:12 82.4 °F /  28.0 °C 60.8 °F /  16.0 °C 30 in /  1014.8 hPa SW 7 mph /  11.3 km/h 10 mph /  16.1 km/h 48 % 0 in /  0.0 mm
15:17 82 °F /  27.8 °C 60.4 °F /  15.8 °C 30 in /  1014.8 hPa SSW 3 mph /  4.8 km/h 10 mph /  16.1 km/h 48 % 0 in /  0.0 mm
15:22 82.6 °F /  28.1 °C 61 °F /  16.1 °C 30 in /  1014.8 hPa SSW 4 mph /  6.4 km/h 11 mph /  17.7 km/h 48 % 0 in /  0.0 mm
15:27 83.1 °F /  28.4 °C 62.1 °F /  16.7 °C 30 in /  1014.4 hPa SE 4 mph /  6.4 km/h 11 mph /  17.7 km/h 49 % 0 in /  0.0 mm
15:37 83.1 °F /  28.4 °C 60.3 °F /  15.7 °C 30 in /  1014.4 hPa SSW 5 mph /  8.0 km/h 9 mph /  14.5 km/h 46 % 0 in /  0.0 mm
15:42 83.1 °F /  28.4 °C 61.3 °F /  16.3 °C 30 in /  1014.4 hPa SSW 7 mph /  11.3 km/h 9 mph /  14.5 km/h 48 % 0 in /  0.0 mm
15:47 82.8 °F /  28.2 °C 60.4 °F /  15.8 °C 30 in /  1014.4 hPa Calm   11 mph /  17.7 km/h 47 % 0 in /  0.0 mm
15:52 83.8 °F /  28.8 °C 60.8 °F /  16.0 °C 30 in /  1014.4 hPa SW 3 mph /  4.8 km/h 11 mph /  17.7 km/h 46 % 0 in /  0.0 mm
15:57 83.7 °F /  28.7 °C 61.3 °F /  16.3 °C 30 in /  1014.4 hPa SSE 3 mph /  4.8 km/h 11 mph /  17.7 km/h 47 % 0 in /  0.0 mm
16:02 84 °F /  28.9 °C 61.7 °F /  16.5 °C 30 in /  1014.4 hPa SW 6 mph /  9.7 km/h 10 mph /  16.1 km/h 47 % 0 in /  0.0 mm
16:12 83.3 °F /  28.5 °C 61 °F /  16.1 °C 29.9 in /  1014.1 hPa SW 5 mph /  8.0 km/h 10 mph /  16.1 km/h 47 % 0 in /  0.0 mm
16:17 83.3 °F /  28.5 °C 61 °F /  16.1 °C 29.9 in /  1014.1 hPa SSW 3 mph /  4.8 km/h 12 mph /  19.3 km/h 47 % 0 in /  0.0 mm
16:22 83.7 °F /  28.7 °C 61.3 °F /  16.3 °C 29.9 in /  1014.1 hPa SSE 1 mph /  1.6 km/h 12 mph /  19.3 km/h 47 % 0 in /  0.0 mm
16:32 83.5 °F /  28.6 °C 61.7 °F /  16.5 °C 29.9 in /  1014.1 hPa WSW 6 mph /  9.7 km/h 9 mph /  14.5 km/h 48 % 0 in /  0.0 mm
16:37 83.7 °F /  28.7 °C 60.6 °F /  15.9 °C 29.9 in /  1014.1 hPa SSW 1 mph /  1.6 km/h 12 mph /  19.3 km/h 46 % 0 in /  0.0 mm
16:42 84 °F /  28.9 °C 62.2 °F /  16.8 °C 29.9 in /  1013.8 hPa SSW 5 mph /  8.0 km/h 12 mph /  19.3 km/h 48 % 0 in /  0.0 mm
16:47 83.7 °F /  28.7 °C 60.6 °F /  15.9 °C 29.9 in /  1013.8 hPa WSW 6 mph /  9.7 km/h 11 mph /  17.7 km/h 46 % 0 in /  0.0 mm
16:52 84 °F /  28.9 °C 61 °F /  16.1 °C 29.9 in /  1013.8 hPa WSW 5 mph /  8.0 km/h 13 mph /  20.9 km/h 46 % 0 in /  0.0 mm
17:02 84 °F /  28.9 °C 61 °F /  16.1 °C 29.9 in /  1013.8 hPa SW 4 mph /  6.4 km/h 13 mph /  20.9 km/h 46 % 0 in /  0.0 mm
17:12 84.9 °F /  29.4 °C 61.2 °F /  16.2 °C 29.9 in /  1013.4 hPa West 6 mph /  9.7 km/h 13 mph /  20.9 km/h 45 % 0 in /  0.0 mm
17:17 85.1 °F /  29.5 °C 60.8 °F /  16.0 °C 29.9 in /  1013.4 hPa SW 14 mph /  22.5 km/h 14 mph /  22.5 km/h 44 % 0 in /  0.0 mm
17:22 84.9 °F /  29.4 °C 60.6 °F /  15.9 °C 29.9 in /  1013.4 hPa SSW 6 mph /  9.7 km/h 12 mph /  19.3 km/h 44 % 0 in /  0.0 mm
17:32 85.6 °F /  29.8 °C 60.6 °F /  15.9 °C 29.9 in /  1013.1 hPa SSW 7 mph /  11.3 km/h 15 mph /  24.1 km/h 43 % 0 in /  0.0 mm
17:42 85.8 °F /  29.9 °C 62.1 °F /  16.7 °C 29.9 in /  1013.1 hPa SW 4 mph /  6.4 km/h 14 mph /  22.5 km/h 45 % 0 in /  0.0 mm
17:47 86.2 °F /  30.1 °C 63 °F /  17.2 °C 29.9 in /  1013.1 hPa SSW 6 mph /  9.7 km/h 13 mph /  20.9 km/h 46 % 0 in /  0.0 mm
17:52 86.2 °F /  30.1 °C 61 °F /  16.1 °C 29.9 in /  1013.1 hPa SW 11 mph /  17.7 km/h 13 mph /  20.9 km/h 43 % 0 in /  0.0 mm
17:57 86 °F /  30.0 °C 59.5 °F /  15.3 °C 29.9 in /  1013.1 hPa West 1 mph /  1.6 km/h 15 mph /  24.1 km/h 41 % 0 in /  0.0 mm
18:02 86.2 °F /  30.1 °C 60.4 °F /  15.8 °C 29.9 in /  1012.8 hPa SW 7 mph /  11.3 km/h 15 mph /  24.1 km/h 42 % 0 in /  0.0 mm
18:07 86.4 °F /  30.2 °C 59.9 °F /  15.5 °C 29.9 in /  1012.8 hPa WSW 7 mph /  11.3 km/h 15 mph /  24.1 km/h 41 % 0 in /  0.0 mm
18:12 86.4 °F /  30.2 °C 61.2 °F /  16.2 °C 29.9 in /  1012.8 hPa SSE 4 mph /  6.4 km/h 15 mph /  24.1 km/h 43 % 0 in /  0.0 mm
18:17 86.4 °F /  30.2 °C 59.9 °F /  15.5 °C 29.9 in /  1012.8 hPa WSW 7 mph /  11.3 km/h 17 mph /  27.4 km/h 41 % 0 in /  0.0 mm
18:22 86.2 °F /  30.1 °C 59.7 °F /  15.4 °C 29.9 in /  1012.8 hPa SSW 4 mph /  6.4 km/h 17 mph /  27.4 km/h 41 % 0 in /  0.0 mm
18:32 86.2 °F /  30.1 °C 60.4 °F /  15.8 °C 29.9 in /  1012.8 hPa SW 12 mph /  19.3 km/h 19 mph /  30.6 km/h 42 % 0 in /  0.0 mm
18:42 85.6 °F /  29.8 °C 59.2 °F /  15.1 °C 29.9 in /  1012.8 hPa WSW 7 mph /  11.3 km/h 20 mph /  32.2 km/h 41 % 0 in /  0.0 mm
18:47 85.6 °F /  29.8 °C 59.9 °F /  15.5 °C 29.9 in /  1012.4 hPa WSW 6 mph /  9.7 km/h 20 mph /  32.2 km/h 42 % 0 in /  0.0 mm
18:52 85.5 °F /  29.7 °C 58.5 °F /  14.7 °C 29.9 in /  1012.8 hPa SW 7 mph /  11.3 km/h 20 mph /  32.2 km/h 40 % 0 in /  0.0 mm
19:02 85.3 °F /  29.6 °C 59 °F /  15.0 °C 29.9 in /  1012.8 hPa SW 7 mph /  11.3 km/h 18 mph /  29.0 km/h 41 % 0 in /  0.0 mm
19:12 84.9 °F /  29.4 °C 57.9 °F /  14.4 °C 29.9 in /  1012.8 hPa WSW 4 mph /  6.4 km/h 18 mph /  29.0 km/h 40 % 0 in /  0.0 mm
19:17 84.7 °F /  29.3 °C 57.7 °F /  14.3 °C 29.9 in /  1012.4 hPa SW 9 mph /  14.5 km/h 18 mph /  29.0 km/h 40 % 0 in /  0.0 mm
19:22 84.7 °F /  29.3 °C 58.5 °F /  14.7 °C 29.9 in /  1012.4 hPa WSW 10 mph /  16.1 km/h 16 mph /  25.7 km/h 41 % 0 in /  0.0 mm
19:32 84.6 °F /  29.2 °C 57.6 °F /  14.2 °C 29.9 in /  1012.8 hPa SW 9 mph /  14.5 km/h 16 mph /  25.7 km/h 40 % 0 in /  0.0 mm
19:42 84.4 °F /  29.1 °C 58.1 °F /  14.5 °C 29.9 in /  1012.8 hPa WSW 8 mph /  12.9 km/h 16 mph /  25.7 km/h 41 % 0 in /  0.0 mm
19:52 84 °F /  28.9 °C 58.5 °F /  14.7 °C 29.9 in /  1012.8 hPa SW 5 mph /  8.0 km/h 15 mph /  24.1 km/h 42 % 0 in /  0.0 mm
19:57 83.8 °F /  28.8 °C 58.3 °F /  14.6 °C 29.9 in /  1012.8 hPa SSW 7 mph /  11.3 km/h 15 mph /  24.1 km/h 42 % 0 in /  0.0 mm
20:02 83.7 °F /  28.7 °C 58.1 °F /  14.5 °C 29.9 in /  1012.8 hPa WSW 8 mph /  12.9 km/h 15 mph /  24.1 km/h 42 % 0 in /  0.0 mm
20:12 83.3 °F /  28.5 °C 57.7 °F /  14.3 °C 29.9 in /  1012.8 hPa SW 7 mph /  11.3 km/h 14 mph /  22.5 km/h 42 % 0 in /  0.0 mm
20:22 82.8 °F /  28.2 °C 57.9 °F /  14.4 °C 29.9 in /  1012.8 hPa WSW 8 mph /  12.9 km/h 14 mph /  22.5 km/h 43 % 0 in /  0.0 mm
20:32 82 °F /  27.8 °C 57.9 °F /  14.4 °C 29.9 in /  1012.8 hPa West 3 mph /  4.8 km/h 14 mph /  22.5 km/h 44 % 0 in /  0.0 mm
20:42 81.7 °F /  27.6 °C 58.3 °F /  14.6 °C 29.9 in /  1012.8 hPa WSW 6 mph /  9.7 km/h 14 mph /  22.5 km/h 45 % 0 in /  0.0 mm
20:47 81.3 °F /  27.4 °C 58.6 °F /  14.8 °C 29.9 in /  1012.8 hPa SW 4 mph /  6.4 km/h 11 mph /  17.7 km/h 46 % 0 in /  0.0 mm
20:52 81 °F /  27.2 °C 58.8 °F /  14.9 °C 29.9 in /  1012.8 hPa SW 5 mph /  8.0 km/h 11 mph /  17.7 km/h 47 % 0 in /  0.0 mm
20:57 80.6 °F /  27.0 °C 58.5 °F /  14.7 °C 29.9 in /  1012.8 hPa West 2 mph /  3.2 km/h 11 mph /  17.7 km/h 47 % 0 in /  0.0 mm
21:02 80.2 °F /  26.8 °C 58.8 °F /  14.9 °C 29.9 in /  1012.8 hPa SW 5 mph /  8.0 km/h 10 mph /  16.1 km/h 48 % 0 in /  0.0 mm
21:12 79.5 °F /  26.4 °C 58.6 °F /  14.8 °C 29.9 in /  1012.8 hPa WSW 4 mph /  6.4 km/h 9 mph /  14.5 km/h 49 % 0 in /  0.0 mm
21:17 79.3 °F /  26.3 °C 58.5 °F /  14.7 °C 29.9 in /  1012.8 hPa SW 2 mph /  3.2 km/h 8 mph /  12.9 km/h 49 % 0 in /  0.0 mm
21:22 79 °F /  26.1 °C 58.8 °F /  14.9 °C 29.9 in /  1012.8 hPa WSW 6 mph /  9.7 km/h 8 mph /  12.9 km/h 50 % 0 in /  0.0 mm
21:32 78.1 °F /  25.6 °C 59 °F /  15.0 °C 29.9 in /  1012.8 hPa West 2 mph /  3.2 km/h 7 mph /  11.3 km/h 52 % 0 in /  0.0 mm
21:42 77 °F /  25.0 °C 59 °F /  15.0 °C 29.9 in /  1012.8 hPa Calm   7 mph /  11.3 km/h 54 % 0 in /  0.0 mm
21:52 76.3 °F /  24.6 °C 59 °F /  15.0 °C 29.9 in /  1012.8 hPa West 1 mph /  1.6 km/h 2 mph /  3.2 km/h 55 % 0 in /  0.0 mm
21:57 75.9 °F /  24.4 °C 59.2 °F /  15.1 °C 29.9 in /  1012.8 hPa WSW 2 mph /  3.2 km/h 2 mph /  3.2 km/h 56 % 0 in /  0.0 mm
22:02 75.6 °F /  24.2 °C 59.2 °F /  15.1 °C 29.9 in /  1012.8 hPa WSW 2 mph /  3.2 km/h 4 mph /  6.4 km/h 57 % 0 in /  0.0 mm
22:12 75 °F /  23.9 °C 59.2 °F /  15.1 °C 29.9 in /  1012.8 hPa West 2 mph /  3.2 km/h 4 mph /  6.4 km/h 58 % 0 in /  0.0 mm
22:17 74.8 °F /  23.8 °C 59 °F /  15.0 °C 29.9 in /  1013.1 hPa West 2 mph /  3.2 km/h 3 mph /  4.8 km/h 58 % 0 in /  0.0 mm
22:22 74.8 °F /  23.8 °C 59 °F /  15.0 °C 29.9 in /  1013.1 hPa SW 1 mph /  1.6 km/h 3 mph /  4.8 km/h 58 % 0 in /  0.0 mm
22:27 74.7 °F /  23.7 °C 59.4 °F /  15.2 °C 29.9 in /  1013.1 hPa WSW 3 mph /  4.8 km/h 4 mph /  6.4 km/h 59 % 0 in /  0.0 mm
22:32 74.5 °F /  23.6 °C 59.2 °F /  15.1 °C 29.9 in /  1013.1 hPa WSW 2 mph /  3.2 km/h 4 mph /  6.4 km/h 59 % 0 in /  0.0 mm
22:42 74.1 °F /  23.4 °C 59.4 °F /  15.2 °C 29.9 in /  1013.1 hPa West 2 mph /  3.2 km/h 4 mph /  6.4 km/h 60 % 0 in /  0.0 mm
22:47 74.3 °F /  23.5 °C 59.5 °F /  15.3 °C 29.9 in /  1013.1 hPa WSW 2 mph /  3.2 km/h 7 mph /  11.3 km/h 60 % 0 in /  0.0 mm
22:52 74.3 °F /  23.5 °C 59 °F /  15.0 °C 29.9 in /  1013.1 hPa WSW 4 mph /  6.4 km/h 7 mph /  11.3 km/h 59 % 0 in /  0.0 mm
22:57 74.5 °F /  23.6 °C 59.2 °F /  15.1 °C 29.9 in /  1013.1 hPa West 3 mph /  4.8 km/h 7 mph /  11.3 km/h 59 % 0 in /  0.0 mm
23:02 74.5 °F /  23.6 °C 59.2 °F /  15.1 °C 29.9 in /  1013.1 hPa WSW 3 mph /  4.8 km/h 6 mph /  9.7 km/h 59 % 0 in /  0.0 mm
23:07 74.7 °F /  23.7 °C 59.4 °F /  15.2 °C 29.9 in /  1013.1 hPa WSW 3 mph /  4.8 km/h 6 mph /  9.7 km/h 59 % 0 in /  0.0 mm
23:12 74.5 °F /  23.6 °C 59.2 °F /  15.1 °C 29.9 in /  1013.1 hPa WSW 3 mph /  4.8 km/h 6 mph /  9.7 km/h 59 % 0 in /  0.0 mm
23:17 74.3 °F /  23.5 °C 59 °F /  15.0 °C 29.9 in /  1013.1 hPa WSW 2 mph /  3.2 km/h 7 mph /  11.3 km/h 59 % 0 in /  0.0 mm
23:22 74.1 °F /  23.4 °C 58.8 °F /  14.9 °C 29.9 in /  1013.1 hPa SW 4 mph /  6.4 km/h 7 mph /  11.3 km/h 59 % 0 in /  0.0 mm
23:32 73.8 °F /  23.2 °C 59 °F /  15.0 °C 29.9 in /  1013.1 hPa SW 3 mph /  4.8 km/h 7 mph /  11.3 km/h 60 % 0 in /  0.0 mm
23:37 73.6 °F /  23.1 °C 59.4 °F /  15.2 °C 29.9 in /  1013.1 hPa SW 3 mph /  4.8 km/h 6 mph /  9.7 km/h 61 % 0 in /  0.0 mm
23:42 73.2 °F /  22.9 °C 59 °F /  15.0 °C 29.9 in /  1013.1 hPa SW 4 mph /  6.4 km/h 6 mph /  9.7 km/h 61 % 0 in /  0.0 mm
23:47 72.9 °F /  22.7 °C 59.5 °F /  15.3 °C 29.9 in /  1013.1 hPa SW 4 mph /  6.4 km/h 7 mph /  11.3 km/h 63 % 0 in /  0.0 mm
23:52 72.5 °F /  22.5 °C 59.2 °F /  15.1 °C 29.9 in /  1013.1 hPa SW 1 mph /  1.6 km/h 7 mph /  11.3 km/h 63 % 0 in /  0.0 mm
23:57 72 °F /  22.2 °C 59.2 °F /  15.1 °C 29.9 in /  1013.1 hPa SSW 1 mph /  1.6 km/h 7 mph /  11.3 km/h 64 % 0 in /  0.0 mm
Meteo18
Compliments of Weather Underground - 4 mb

Script developed by  Jim McMurry - jmcmurry@mwt.net Adapted for the template by  Wim van der Kuil - Leuven-Template.eu

You find our weather info also at:

European Weather Network

Weather Underground

Equipment we use:

Weather-station
Davis Vue

Weather-program
Meteohub

Weather-server
Raspberry PI 2 B+

Provider
1 and 1

Davis Vue

Meteohub

Raspberry PI 2 B+

1 and 1